Hauptseite
METAR-TAF:

METAR-TAF

Flughäfen :

Karachi/Jinnah International Airport

Karatschi, Pakistan

Breite: 24-54N, Länge: 067-08E, Höhe: 21 m

Beobachtung

Neuester Wetterbericht von vor 28 Minuten, um 19:25 UTC
Wind 6 kt aus West/Südwest
Temperatur 29°C
Luftfeuchtigkeit 79%
Luftdruck 1008 hPa
Sichtweite: 6000 m
Aufgelockert bewölkt in der Höhe von 2000 ft

METAR: OPKC 241925Z 25006KT 6000 SCT020 29/25 Q1008 NOSIG

Zeit: 00:53 (19:53 UTC)

Prognose

Neuester Wetterbericht von vor 4 Stunden und 23 Minuten, um 15:30 UTC
Gültige Prognose vom 24 um 18 UTC bis 25 um 03 UTC
Wind 8 kt aus Nordwest
Sichtweite: 4000 m
trockener Dunst

TAF: OPKC 241530Z 2418/2503 31008KT 4000 HZ NSC

Wetterbeobachtungen und Prognosen von mehr als 4000 Flughäfen (METAR und TAF Bericht).

Die verfügbaren Stationen werden durch gelbe und rote Markierungen auf der Karte dargestellt.

Führen Sie die Maus auf sie, um den Namen der Station zu sehen.

Darauf klicken, um die Beobachtung von Wetterbeobachtungen und Prognosen zu sehen.

Um die Karte zu ändern : klicken Sie auf den grünen Tasten mit einem schwarzen Kreuz Zum Vergrößern, auf den grünen Button mit einem Gedankenstrich zu verkleinern, oder auf die grünen Pfeile für benachbarte Karten.


METAR-TAF: